Latest Coastal Weather Observations for Eucla

IDS60701

Issued at 10:51 am CDT Monday 5 December 2016 (issued every 10 minutes, with the page automatically refreshed every 10 minutes)

About coastal observations | Map of coastal stations | Coastal observations for SA | Marine services | Other Formats
Station Details ID: 011003 Name: EUCLA Lat: -31.68 Lon: 128.90 Height: 93.1 m
Data from the previous 72 hours. | See also: Recent months at Eucla
Date/Time
CDT
Temp
°C
Wind Pressure Rain since
9am
mm
Weather Cloud Vis
km
Sea
Height
m
Swell
Dir  Spd
kts
Gust
kts
hPa Trend Height
m
Period
s
Dir
05/10:30am 19.3 ESE 10 14 1015.0 - 0.0 - - - - - - -
05/10:00am 19.4 ESE 9 16 1014.7 - 0.0 - - - - - - -
05/09:30am 19.1 E 9 14 1014.6 - 0.0 - - - - - - -
05/09:00am 18.4 ENE 9 13 1015.0 - 0.0 - - - - - - -
05/08:30am 17.5 ENE 7 9 1014.9 - 0.0 - - - - - - -
05/08:00am 16.1 NE 5 6 1014.9 - 0.0 - - - - - - -
05/07:30am 15.1 ENE 4 5 1014.5 - 0.0 - - - - - - -
05/07:00am 15.3 ESE 6 8 1014.0 - 0.0 - - - - - - -
05/06:30am 15.3 ESE 6 9 1013.4 - 0.0 - - - - - - -
05/06:00am 15.3 ESE 5 7 1013.7 - 0.0 - - - - - - -
05/05:30am 15.4 E 6 9 1013.8 - 0.0 - - - - - - -
05/05:00am 15.5 ESE 8 11 1013.5 - 0.0 - - - - - - -
05/04:30am 15.4 ESE 6 8 1013.5 - 0.0 - - - - - - -
05/04:00am 15.2 SE 5 8 1014.1 - 0.0 - - - - - - -
05/03:30am 15.2 ESE 4 6 1014.7 - 0.0 - - - - - - -
05/03:00am 15.0 SE 6 8 1014.8 - 0.0 - - - - - - -
05/02:30am 15.0 SE 7 9 1014.7 - 0.0 - - - - - - -
05/02:00am 15.3 SE 5 8 1015.3 - 0.0 - - - - - - -
05/01:30am 15.3 SSE 9 13 1014.2 - 0.0 - - - - - - -
05/01:00am 16.0 SSE 8 15 1014.6 - 0.0 - - - - - - -
05/12:30am 15.8 SSE 9 12 1014.7 - 0.0 - - - - - - -
05/12:00am 15.6 S 8 10 1014.8 - 0.0 - - - - - - -
 
Date/Time
CDT
Temp
°C
Wind Pressure Rain since
9am
mm
Weather Cloud Vis
km
Sea
Height
m
Swell
Dir  Spd
kts
Gust
kts
hPa Trend Height
m
Period
s
Dir
04/11:30pm 15.5 SSE 8 13 1014.9 - 0.0 - - - - - - -
04/11:00pm 15.7 S 8 13 1014.7 - 0.0 - - - - - - -
04/10:30pm 16.0 S 9 14 1014.6 - 0.0 - - - - - - -
04/10:00pm 16.2 S 8 13 1014.4 - 0.0 - - - - - - -
04/09:30pm 16.4 S 9 15 1013.4 - 0.0 - - - - - - -
04/09:00pm 16.7 S 10 17 1013.3 - 0.0 - - - - - - -
04/08:30pm 17.1 S 12 18 1013.1 - 0.0 - - - - - - -
04/08:00pm 17.4 S 13 19 1012.7 - 0.0 - - - - - - -
04/07:30pm 18.0 SSW 14 22 1011.8 - 0.0 - - - - - - -
04/07:00pm 19.3 SSW 15 22 1011.7 - 0.0 - - - - - - -
04/06:30pm 19.1 SSW 15 21 1011.5 - 0.0 - - - - - - -
04/06:00pm 20.3 SSW 16 23 1011.3 - 0.0 - - - - - - -
04/05:46pm 20.1 SSW 15 27 1011.4 - 0.0 - - - - - - -
04/05:30pm 20.3 SSW 15 24 1011.2 - 0.0 Haze Mostly clear 20 - - - -
04/05:12pm 20.5 SSW 15 25 1011.1 - 0.0 - - - - - - -
04/05:00pm 20.6 SSW 16 25 1011.0 - 0.0 - - - - - - -
04/04:52pm 20.9 SSW 15 25 1010.9 - 0.0 - - - - - - -
04/04:30pm 20.7 SSW 14 22 1011.1 - 0.0 - - - - - - -
04/04:00pm 20.8 SW 15 24 1010.9 - 0.0 - - - - - - -
04/03:30pm 21.6 SSW 17 27 1010.4 - 0.0 - - - - - - -
04/03:00pm 21.6 SSW 17 29 1010.4 - 0.0 - - - - - - -
04/02:50pm 20.5 SSW 15 25 1010.2 - 0.0 - - - - - - -
04/02:30pm 21.4 SSW 16 22 1010.6 - 0.0 - - - - - - -
04/02:00pm 20.5 SW 16 26 1010.4 - 0.0 - - - - - - -
04/01:30pm 21.4 SSW 15 26 1009.9 - 0.0 - - - - - - -
04/01:00pm 21.1 SSW 15 25 1009.7 - 0.0 - - - - - - -
04/12:35pm 21.6 SW 17 27 1009.4 - 0.0 - - - - - - -
04/12:30pm 21.1 SW 17 25 1009.3 - 0.0 - - - - - - -
04/12:07pm 21.2 SW 16 26 1008.8 - 0.0 - - - - - - -
04/12:00pm 20.8 SSW 18 27 1008.5 - 0.0 - - - - - - -
04/11:36am 20.7 SW 17 28 1008.1 - 0.0 - - - - - - -
04/11:30am 21.2 SW 17 26 1008.2 - 25.2 Haze Partly cloudy 15 - - - -
04/11:07am 20.8 SW 17 27 1007.7 - 25.2 - - - - - - -
04/11:00am 20.9 SW 18 27 1007.5 - 25.2 - - - - - - -
04/10:30am 20.8 SW 17 28 1006.8 - 25.2 - - - - - - -
04/10:00am 21.7 SW 17 27 1006.4 - 25.2 - - - - - - -
04/09:49am 22.0 WSW 15 25 1006.2 - 25.2 - - - - - - -
04/09:30am 21.9 WSW 14 20 1005.9 - 25.2 - - - - - - -
04/09:00am 21.9 WSW 14 21 1005.5 - 25.0 - - - - - - -
04/08:30am 23.8 W 10 17 1004.7 - 25.0 - - - - - - -
04/08:00am 22.3 NW 5 7 1004.6 - 25.0 - - - - - - -
04/07:30am 20.5 NW 5 6 1004.5 - 25.0 - - - - - - -
04/07:00am 20.4 NW 5 9 1004.0 - 25.0 - - - - - - -
04/06:30am 21.2 N 11 16 1003.1 - 25.0 - - - - - - -
04/06:00am 21.8 N 14 21 1002.0 - 25.0 - - - - - - -
04/05:30am 22.4 N 14 20 1001.4 - 25.0 - - - - - - -
04/05:00am 22.6 N 15 22 1001.1 - 25.0 - - - - - - -
04/04:33am 22.6 N 16 26 1000.7 - 25.0 - - - - - - -
04/04:30am 22.6 N 17 26 1000.7 - 25.0 - - - - - - -
04/04:28am 22.5 N 16 26 1000.7 - 25.0 - - - - - - -
04/04:00am 22.6 N 17 23 999.7 - 25.0 - - - - - - -
04/03:30am 23.4 N 18 26 999.5 - 25.0 - - - - - - -
04/03:00am 23.9 NNE 21 32 998.3 - 25.0 - - - - - - -
04/02:36am 23.5 NNE 20 42 997.6 - 25.0 - - - - - - -
04/02:35am 23.4 NNE 19 29 998.0 - 25.0 - - - - - - -
04/02:30am 23.2 NNE 20 28 998.9 - 25.0 - - - - - - -
04/02:02am 23.0 N 17 27 1000.8 - 25.0 - - - - - - -
04/02:00am 23.2 N 18 27 1000.8 - 25.0 - - - - - - -
04/01:30am 23.1 NNW 13 20 1002.0 - 25.0 - - - - - - -
04/01:00am 20.6 NE 13 20 1001.1 - 25.0 - - - - - - -
04/12:56am 20.5 NE 12 20 1001.0 - 25.0 - - - - - - -
04/12:30am 21.1 ENE 10 18 1003.0 - 25.0 - - - - - - -
04/12:29am 21.2 NE 9 18 1003.0 - 25.0 - - - - - - -
04/12:00am 21.7 N 6 10 1005.0 - 25.0 - - - - - - -
 
Date/Time
CDT
Temp
°C
Wind Pressure Rain since
9am
mm
Weather Cloud Vis
km
Sea
Height
m
Swell
Dir  Spd
kts
Gust
kts
hPa Trend Height
m
Period
s
Dir
03/11:30pm 21.6 ESE 5 9 1003.9 - 25.0 Recent precip. - - - - - -
03/11:00pm 19.7 ENE 9 15 1005.4 - 24.8 - - - - - - -
03/10:30pm 19.6 ESE 9 14 1006.7 - 24.6 - - - - - - -
03/10:00pm 18.9 ENE 6 10 1007.9 - 23.0 - - - - - - -
03/09:30pm 18.4 S 5 9 1007.7 - 20.6 - - - - - - -
03/09:00pm 19.0 E 9 20 1007.5 - 11.2 - - - - - - -
03/08:57pm 18.7 ENE 12 20 1006.0 - 10.0 - - - - - - -
03/08:46pm 18.7 E 15 20 1003.8 - 9.8 - - - - - - -
03/08:30pm 20.3 SSE 5 7 1004.8 - 8.8 Rain - - - - - -
03/08:00pm 20.7 SW 5 6 1006.2 - 2.8 - - - - - - -
03/07:47pm 20.6 SSW 6 10 1005.2 - 2.2 - - - - - - -
03/07:30pm 20.9 ESE 10 16 1003.2 - 2.2 - - - - - - -
03/07:08pm 23.2 ENE 16 27 1004.5 - 0.0 - - - - - - -
03/07:07pm 22.8 ENE 17 27 1005.0 - 0.0 - - - - - - -
03/07:06pm 22.3 E 16 27 1005.0 - 0.0 - - - - - - -
03/07:05pm 21.8 E 16 25 1003.4 - 0.0 - - - - - - -
03/07:00pm 21.5 E 17 25 1001.2 - 0.0 - - - - - - -
03/06:32pm 22.4 E 15 25 1000.6 - 0.0 - - - - - - -
03/06:30pm 22.3 E 16 25 1000.6 - 0.0 - - - - - - -
03/06:18pm 22.3 ESE 15 26 1000.9 - 0.0 - - - - - - -
03/06:00pm 22.8 E 17 24 1001.7 - 0.0 - - - - - - -
03/05:30pm 24.1 E 15 23 1002.7 - 0.0 Haze Mostly clear 20 - - - -
03/05:00pm 24.4 E 15 21 1003.4 - 0.0 - - - - - - -
03/04:30pm 24.1 ESE 12 18 1004.2 - 0.0 - - - - - - -
03/04:00pm 23.9 E 13 20 1004.7 - 0.0 - - - - - - -
03/03:30pm 25.7 E 13 21 1005.7 - 0.0 - - - - - - -
03/03:00pm 24.3 ESE 12 19 1006.4 - 0.0 - - - - - - -
03/02:30pm 24.9 E 13 19 1006.8 - 0.0 - - - - - - -
03/02:00pm 23.9 E 13 20 1007.7 - 0.0 - - - - - - -
03/01:30pm 23.1 ESE 13 18 1008.2 - 0.0 - - - - - - -
03/01:00pm 22.2 ESE 11 16 1008.7 - 0.0 - - - - - - -
03/12:30pm 22.8 ESE 10 17 1009.1 - 0.0 - - - - - - -
03/12:00pm 22.4 SE 11 16 1009.6 - 0.0 - - - - - - -
03/11:30am 22.3 ESE 11 15 1010.0 - 0.0 Haze Partly cloudy 25 - - - -
03/11:00am 21.5 ESE 10 15 1010.2 - 0.0 - - - - - - -
03/10:30am 20.9 E 8 12 1010.5 - 0.0 - - - - - - -
03/10:00am 21.5 ENE 8 12 1010.9 - 0.0 - - - - - - -
03/09:30am 20.1 ENE 9 14 1011.0 - 0.0 - - - - - - -
03/09:00am 18.9 ENE 8 14 1011.1 - 0.0 - - - - - - -
03/08:30am 18.0 E 10 16 1010.8 - 0.0 - - - - - - -
03/08:00am 16.8 ENE 10 16 1010.6 - 0.0 - - - - - - -
03/07:30am 16.1 E 9 14 1010.5 - 0.0 - - - - - - -
03/07:00am 15.6 E 9 17 1010.3 - 0.0 - - - - - - -
03/06:30am 15.9 ENE 9 13 1010.7 - 0.0 - - - - - - -
03/06:00am 15.8 E 9 15 1010.8 - 0.0 - - - - - - -
03/05:30am 15.6 E 10 17 1010.6 - 0.0 - - - - - - -
03/05:00am 15.5 ESE 10 15 1010.4 - 0.0 - - - - - - -
03/04:30am 15.3 ESE 10 15 1010.1 - 0.0 - - - - - - -
03/04:00am 15.4 ESE 10 14 1010.5 - 0.0 - - - - - - -
03/03:30am 15.5 ESE 10 16 1011.0 - 0.0 - - - - - - -
03/03:00am 15.3 ESE 9 14 1011.2 - 0.0 - - - - - - -
03/02:30am 15.4 ESE 9 16 1011.7 - 0.0 - - - - - - -
03/02:00am 15.4 ESE 9 15 1012.1 - 0.0 - - - - - - -
03/01:30am 15.3 E 8 14 1012.4 - 0.0 - - - - - - -
03/01:00am 15.4 E 10 16 1013.0 - 0.0 - - - - - - -
03/12:30am 15.6 E 10 16 1013.3 - 0.0 - - - - - - -
03/12:00am 15.8 E 10 16 1013.6 - 0.0 - - - - - - -
 
Date/Time
CDT
Temp
°C
Wind Pressure Rain since
9am
mm
Weather Cloud Vis
km
Sea
Height
m
Swell
Dir  Spd
kts
Gust
kts
hPa Trend Height
m
Period
s
Dir
02/11:30pm 15.9 E 9 15 1013.5 - 0.0 - - - - - - -
02/11:00pm 15.9 E 10 16 1013.4 - 0.0 - - - - - - -
02/10:30pm 15.9 E 10 15 1013.4 - 0.0 - - - - - - -
02/10:00pm 16.0 ESE 10 15 1013.3 - 0.0 - - - - - - -
02/09:30pm 15.9 ESE 10 17 1013.1 - 0.0 - - - - - - -
02/09:00pm 16.1 ESE 11 17 1013.0 - 0.0 - - - - - - -
02/08:30pm 16.3 ESE 11 16 1013.0 - 0.0 - - - - - - -
02/08:00pm 16.9 ESE 12 17 1012.9 - 0.0 - - - - - - -
02/07:30pm 17.4 ESE 13 18 1012.8 - 0.0 - - - - - - -
02/07:00pm 18.0 SE 13 19 1012.7 - 0.0 - - - - - - -
02/06:30pm 18.3 SE 14 20 1012.6 - 0.0 - - - - - - -
02/06:00pm 18.7 SE 11 16 1013.2 - 0.0 - - - - - - -
02/05:30pm 18.2 ESE 11 18 1013.4 - 0.0 Haze Mostly clear 25 - - - -
02/05:00pm 19.2 SE 11 17 1013.7 - 0.0 - - - - - - -
02/04:30pm 19.8 SE 11 18 1013.6 - 0.0 - - - - - - -
02/04:00pm 19.9 SE 11 17 1013.7 - 0.0 - - - - - - -
02/03:30pm 19.9 SE 10 17 1013.9 - 0.0 - - - - - - -
02/03:00pm 19.6 SE 11 18 1014.2 - 0.0 - - - - - - -
02/02:30pm 20.2 ESE 11 18 1014.3 - 0.0 - - - - - - -
02/02:00pm 20.8 SE 10 18 1014.8 - 0.0 - - - - - - -
02/01:30pm 20.3 SE 10 17 1015.0 - 0.0 - - - - - - -

Other Formats:

Comma delimited format used in spreadsheet applications
http://www.bom.gov.au/fwo/IDS60701/IDS60701.94647.axf

JavaScript Object Notation format (JSON) in row-major order
http://www.bom.gov.au/fwo/IDS60701/IDS60701.94647.json